createdAt,value
2017-03-13T00:00:11.158Z,89.75
2017-03-13T00:01:11.149Z,89.85
2017-03-13T00:02:11.120Z,89.56
2017-03-13T00:03:11.087Z,89.47
2017-03-13T00:04:11.065Z,89.66
2017-03-13T00:05:11.039Z,89.75
2017-03-13T00:06:11.073Z,89.47
2017-03-13T00:07:10.613Z,89.75
2017-03-13T00:08:11.045Z,90.14
2017-03-13T00:09:10.959Z,90.42
2017-03-13T00:10:10.554Z,90.61
2017-03-13T00:11:10.521Z,90.42
2017-03-13T00:12:10.959Z,89.66
2017-03-13T00:13:10.494Z,89.23
2017-03-13T00:14:10.851Z,89.7
2017-03-13T00:15:10.825Z,89.75
2017-03-13T00:16:10.882Z,89.85
2017-03-13T00:17:10.778Z,90.14
2017-03-13T00:18:10.809Z,90.33
2017-03-13T00:19:10.736Z,90.04
2017-03-13T00:20:10.330Z,90.04
2017-03-13T00:21:10.698Z,90.04
2017-03-13T00:22:10.307Z,90.52
2017-03-13T00:23:10.681Z,90.33
2017-03-13T00:24:10.255Z,90.42
2017-03-13T00:25:10.214Z,90.52
2017-03-13T00:26:10.250Z,90.52
2017-03-13T00:27:10.165Z,90.52
2017-03-13T00:28:10.538Z,90.33
2017-03-13T00:29:10.120Z,90.04
2017-03-13T00:30:10.502Z,90.14
2017-03-13T00:31:10.521Z,90.14
2017-03-13T00:32:10.071Z,90.14
2017-03-13T00:33:10.483Z,90.23
2017-03-13T00:34:10.413Z,89.75
2017-03-13T00:35:10.460Z,89.8
2017-03-13T00:36:10.370Z,90.04
2017-03-13T00:37:10.437Z,90.04
2017-03-13T00:38:10.317Z,90.61
2017-03-13T00:39:09.911Z,90.89
2017-03-13T00:40:09.906Z,90.8
2017-03-13T00:41:09.866Z,90.8
2017-03-13T00:42:10.247Z,90.7
2017-03-13T00:43:10.202Z,90.23
2017-03-13T00:44:10.184Z,90.33
2017-03-13T00:45:09.803Z,90.28
2017-03-13T00:46:09.763Z,89.99
2017-03-13T00:47:10.140Z,90.04
2017-03-13T00:48:09.722Z,90.14
2017-03-13T00:49:10.101Z,90.61
2017-03-13T00:50:10.180Z,90.52
2017-03-13T00:51:10.040Z,90.33
2017-03-13T00:52:09.645Z,89.99
2017-03-13T00:53:09.988Z,89.89
2017-03-13T00:54:09.959Z,89.89
2017-03-13T00:55:09.956Z,90.08
2017-03-13T00:56:09.522Z,89.23
2017-03-13T00:57:10.037Z,89.8
2017-03-13T00:58:09.886Z,90.23
2017-03-13T00:59:09.856Z,90.14
2017-03-13T01:00:09.843Z,90.04
2017-03-13T01:01:09.818Z,90.04
2017-03-13T01:02:09.783Z,90.28
2017-03-13T01:03:09.776Z,90.37
2017-03-13T01:04:09.760Z,90.18
2017-03-13T01:05:09.344Z,89.89
2017-03-13T01:06:09.312Z,89.89
2017-03-13T01:07:09.746Z,90.14
2017-03-13T01:08:09.654Z,90.18
2017-03-13T01:09:09.633Z,90.37
2017-03-13T01:10:09.610Z,90.28
2017-03-13T01:11:09.583Z,90.08
2017-03-13T01:12:09.567Z,90.28
2017-03-13T01:13:09.539Z,90.37
2017-03-13T01:14:09.529Z,89.89
2017-03-13T01:15:09.521Z,89.89
2017-03-13T01:16:09.487Z,89.7
2017-03-13T01:17:09.456Z,89.61
2017-03-13T01:18:09.056Z,89.8
2017-03-13T01:19:09.419Z,89.7
2017-03-13T01:20:09.400Z,89.99
2017-03-13T01:21:09.375Z,89.89
2017-03-13T01:22:09.344Z,89.8
2017-03-13T01:23:09.346Z,89.8
2017-03-13T01:24:09.303Z,89.8
2017-03-13T01:25:08.890Z,90.18
2017-03-13T01:26:08.880Z,89.99
2017-03-13T01:27:08.845Z,90.28
2017-03-13T01:28:09.233Z,90.84
2017-03-13T01:29:09.191Z,90.8
2017-03-13T01:30:09.178Z,90.8
2017-03-13T01:31:09.162Z,90.52
2017-03-13T01:32:09.130Z,90.61
2017-03-13T01:33:09.109Z,90.66
2017-03-13T01:34:09.097Z,90.99
2017-03-13T01:35:09.057Z,91.08
2017-03-13T01:36:08.642Z,91.47
2017-03-13T01:37:08.636Z,91.47
2017-03-13T01:38:08.993Z,91.56
2017-03-13T01:39:08.984Z,90.89
2017-03-13T01:40:08.956Z,91.28
2017-03-13T01:41:08.541Z,91.28
2017-03-13T01:42:08.903Z,91.08
2017-03-13T01:43:08.894Z,90.75
2017-03-13T01:44:08.893Z,90.8
2017-03-13T01:45:08.855Z,90.89
2017-03-13T01:46:08.421Z,90.99
2017-03-13T01:47:08.799Z,91.08
2017-03-13T01:48:08.382Z,91.28
2017-03-13T01:49:08.759Z,92.03
2017-03-13T01:50:08.339Z,92.32
2017-03-13T01:51:08.727Z,92.22
2017-03-13T01:52:08.702Z,92.41
2017-03-13T01:53:08.672Z,91.85
2017-03-13T01:54:08.266Z,91.66
2017-03-13T01:55:08.239Z,91.66
2017-03-13T01:56:08.595Z,91.94
2017-03-13T01:57:08.572Z,92.13
2017-03-13T01:58:08.551Z,92.51
2017-03-13T01:59:08.533Z,92.22
2017-03-13T02:00:08.506Z,92.41
2017-03-13T02:01:08.503Z,92.41
2017-03-13T02:02:08.072Z,92.22
2017-03-13T02:03:08.061Z,92.41
2017-03-13T02:04:08.423Z,92.89
2017-03-13T02:05:08.404Z,92.89
2017-03-13T02:06:08.383Z,93.08
2017-03-13T02:07:08.350Z,92.89
2017-03-13T02:08:08.330Z,92.41
2017-03-13T02:09:07.919Z,92.03
2017-03-13T02:10:08.292Z,92.41
2017-03-13T02:11:07.888Z,92.51
2017-03-13T02:12:07.870Z,92.41
2017-03-13T02:13:08.215Z,92.61
2017-03-13T02:14:08.209Z,92.7
2017-03-13T02:15:07.807Z,92.41
2017-03-13T02:16:08.168Z,92.51
2017-03-13T02:17:07.744Z,92.8
2017-03-13T02:18:07.720Z,92.8
2017-03-13T02:19:07.692Z,92.51
2017-03-13T02:20:08.062Z,92.32
2017-03-13T02:21:08.044Z,92.13
2017-03-13T02:22:08.020Z,92.13
2017-03-13T02:23:08.002Z,91.75
2017-03-13T02:24:07.981Z,91.75
2017-03-13T02:25:07.563Z,92.13
2017-03-13T02:26:07.548Z,92.03
2017-03-13T02:27:07.910Z,92.32
2017-03-13T02:28:07.891Z,92.41
2017-03-13T02:29:07.474Z,92.03
2017-03-13T02:30:07.449Z,92.32
2017-03-13T02:31:07.812Z,92.7
2017-03-13T02:32:07.808Z,92.13
2017-03-13T02:33:07.387Z,92.51
2017-03-13T02:34:07.365Z,92.8
2017-03-13T02:35:07.732Z,93.08
2017-03-13T02:36:07.710Z,92.41
2017-03-13T02:37:07.686Z,92.8
2017-03-13T02:38:07.673Z,92.8
2017-03-13T02:39:07.253Z,92.8
2017-03-13T02:40:07.614Z,92.41
2017-03-13T02:41:07.209Z,92.41
2017-03-13T02:42:07.572Z,92.03
2017-03-13T02:43:07.182Z,92.32
2017-03-13T02:44:07.152Z,92.41
2017-03-13T02:45:07.501Z,92.41
2017-03-13T02:46:07.489Z,92.03
2017-03-13T02:47:07.464Z,92.03
2017-03-13T02:48:07.433Z,92.41
2017-03-13T02:49:07.039Z,92.51
2017-03-13T02:50:07.008Z,92.51
2017-03-13T02:51:07.367Z,92.61
2017-03-13T02:52:06.956Z,92.41
2017-03-13T02:53:07.336Z,92.03
2017-03-13T02:54:06.917Z,92.13
2017-03-13T02:55:07.286Z,92.32
2017-03-13T02:56:07.255Z,92.41
2017-03-13T02:57:06.853Z,92.41
2017-03-13T02:58:06.823Z,92.41
2017-03-13T02:59:07.194Z,92.41
2017-03-13T03:00:07.181Z,92.41
2017-03-13T03:01:07.133Z,93.04
2017-03-13T03:02:07.130Z,92.66
2017-03-13T03:03:07.115Z,93.6
2017-03-13T03:04:07.099Z,93.46
2017-03-13T03:05:07.065Z,93.55
2017-03-13T03:06:06.652Z,93.23
2017-03-13T03:07:07.042Z,93.08
2017-03-13T03:08:06.982Z,92.89
2017-03-13T03:09:06.683Z,92.85
2017-03-13T03:10:06.559Z,92.8
2017-03-13T03:11:06.626Z,92.89
2017-03-13T03:12:06.509Z,93.18
2017-03-13T03:13:06.896Z,93.32
2017-03-13T03:14:06.857Z,93.27
2017-03-13T03:15:06.835Z,93.18
2017-03-13T03:16:06.811Z,93.27
2017-03-13T03:17:06.913Z,93.37
2017-03-13T03:18:06.763Z,93.51
2017-03-13T03:19:06.413Z,93.37
2017-03-13T03:20:06.712Z,93.65
2017-03-13T03:21:06.704Z,93.51
2017-03-13T03:22:06.681Z,93.32
2017-03-13T03:23:06.731Z,93.23
2017-03-13T03:24:06.633Z,93.32
2017-03-13T03:25:06.707Z,93.04
2017-03-13T03:26:06.587Z,93.89
2017-03-13T03:27:06.657Z,93.99
2017-03-13T03:28:06.543Z,93.51
2017-03-13T03:29:06.520Z,93.32
2017-03-13T03:30:06.097Z,93.6
2017-03-13T03:31:06.467Z,93.41
2017-03-13T03:32:06.453Z,93.6
2017-03-13T03:33:06.421Z,93.7
2017-03-13T03:34:06.421Z,93.6
2017-03-13T03:35:06.535Z,93.23
2017-03-13T03:36:05.969Z,93.23
2017-03-13T03:37:06.325Z,93.51
2017-03-13T03:38:05.923Z,93.6
2017-03-13T03:39:05.892Z,94.08
2017-03-13T03:40:06.272Z,93.99
2017-03-13T03:41:06.238Z,94.18
2017-03-13T03:42:06.227Z,94.46
2017-03-13T03:43:06.191Z,94.46
2017-03-13T03:44:06.176Z,94.18
2017-03-13T03:45:06.147Z,94.27
2017-03-13T03:46:06.131Z,94.27
2017-03-13T03:47:06.125Z,94.08
2017-03-13T03:48:06.087Z,93.6
2017-03-13T03:49:06.068Z,94.27
2017-03-13T03:50:06.043Z,94.27
2017-03-13T03:51:05.683Z,94.18
2017-03-13T03:52:05.593Z,94.18
2017-03-13T03:53:05.595Z,94.18
2017-03-13T03:54:05.556Z,94.27
2017-03-13T03:55:05.524Z,93.99
2017-03-13T03:56:05.901Z,94.08
2017-03-13T03:57:05.883Z,93.89
2017-03-13T03:58:05.862Z,94.18
2017-03-13T03:59:05.832Z,94.46
2017-03-13T04:00:05.811Z,94.65
2017-03-13T04:01:05.781Z,94.46
2017-03-13T04:02:05.759Z,94.18
2017-03-13T04:03:05.344Z,94.27
2017-03-13T04:04:05.727Z,94.37
2017-03-13T04:05:05.297Z,94.27
2017-03-13T04:06:05.669Z,94.37
2017-03-13T04:07:05.656Z,94.27
2017-03-13T04:08:05.640Z,94.18
2017-03-13T04:09:05.607Z,94.46
2017-03-13T04:10:05.586Z,94.18
2017-03-13T04:11:05.182Z,94.37
2017-03-13T04:12:05.554Z,94.46
2017-03-13T04:13:05.501Z,94.65
2017-03-13T04:14:05.486Z,94.74
2017-03-13T04:15:05.463Z,94.37
2017-03-13T04:16:05.073Z,94.37
2017-03-13T04:17:05.443Z,94.89
2017-03-13T04:18:05.381Z,95.08
2017-03-13T04:19:04.981Z,95.08
2017-03-13T04:20:04.949Z,95.27
2017-03-13T04:21:04.930Z,95.27
2017-03-13T04:22:05.294Z,95.75
2017-03-13T04:23:04.889Z,95.75
2017-03-13T04:24:04.866Z,95.08
2017-03-13T04:25:05.234Z,95.27
2017-03-13T04:26:04.848Z,95.17
2017-03-13T04:27:05.177Z,95.75
2017-03-13T04:28:05.176Z,95.46
2017-03-13T04:29:05.155Z,96.12
2017-03-13T04:30:05.117Z,95.84
2017-03-13T04:31:05.105Z,96.12
2017-03-13T04:32:05.075Z,95.65
2017-03-13T04:33:05.054Z,95.94
2017-03-13T04:34:05.033Z,96.31
2017-03-13T04:35:05.003Z,96.41
2017-03-13T04:36:04.593Z,96.69
2017-03-13T04:37:04.573Z,96.41
2017-03-13T04:38:04.933Z,96.5
2017-03-13T04:39:04.912Z,96.88
2017-03-13T04:40:04.500Z,97.55
2017-03-13T04:41:04.860Z,97.36
2017-03-13T04:42:04.851Z,97.69
2017-03-13T04:43:04.832Z,97.88
2017-03-13T04:44:04.838Z,98.16
2017-03-13T04:45:04.768Z,97.6
2017-03-13T04:46:04.369Z,98.35
2017-03-13T04:47:04.737Z,98.26
2017-03-13T04:48:04.806Z,98.83
2017-03-13T04:49:04.683Z,98.54
2017-03-13T04:50:04.727Z,99.3
2017-03-13T04:51:04.635Z,99.68
2017-03-13T04:52:04.627Z,99.02
2017-03-13T04:53:04.189Z,98.73
2017-03-13T04:54:04.574Z,98.73
2017-03-13T04:55:04.572Z,98.83
2017-03-13T04:56:04.527Z,99.87
2017-03-13T04:57:04.499Z,99.99
2017-03-13T04:58:04.573Z,99.91
2017-03-13T04:59:04.445Z,99.99
2017-03-13T05:00:04.527Z,99.99
2017-03-13T05:01:04.519Z,99.99
2017-03-13T05:02:04.369Z,99.49
2017-03-13T05:03:03.970Z,99.77
2017-03-13T05:04:04.331Z,99.4
2017-03-13T05:05:04.300Z,98.73
2017-03-13T05:06:04.279Z,98.64
2017-03-13T05:07:03.865Z,98.35
2017-03-13T05:08:04.226Z,97.88
2017-03-13T05:09:03.824Z,98.45
2017-03-13T05:10:03.804Z,98.16
2017-03-13T05:11:04.157Z,98.83
2017-03-13T05:12:04.126Z,98.26
2017-03-13T05:13:04.110Z,98.16
2017-03-13T05:14:04.083Z,98.26
2017-03-13T05:15:04.073Z,98.92
2017-03-13T05:16:03.653Z,98.73
2017-03-13T05:17:03.621Z,99.02
2017-03-13T05:18:03.993Z,98.64
2017-03-13T05:19:03.978Z,98.54
2017-03-13T05:20:03.952Z,97.97
2017-03-13T05:21:03.523Z,98.16
2017-03-13T05:22:03.913Z,98.16
2017-03-13T05:23:03.869Z,98.16
2017-03-13T05:24:03.858Z,98.26
2017-03-13T05:25:03.872Z,97.5
2017-03-13T05:26:03.417Z,97.22
2017-03-13T05:27:03.398Z,97.69
2017-03-13T05:28:03.766Z,97.31
2017-03-13T05:29:03.726Z,97.07
2017-03-13T05:30:03.705Z,96.98
2017-03-13T05:31:03.307Z,96.98
2017-03-13T05:32:03.670Z,97.07
2017-03-13T05:33:03.638Z,97.27
2017-03-13T05:34:03.619Z,96.5
2017-03-13T05:35:03.611Z,96.98
2017-03-13T05:36:03.573Z,96.98
2017-03-13T05:37:03.159Z,96.31
2017-03-13T05:38:03.137Z,96.88
2017-03-13T05:39:03.500Z,96.5
2017-03-13T05:40:03.480Z,96.5
2017-03-13T05:41:03.449Z,96.41
2017-03-13T05:42:03.432Z,96.69
2017-03-13T05:43:03.410Z,96.5
2017-03-13T05:44:03.379Z,96.41
2017-03-13T05:45:03.371Z,97.36
2017-03-13T05:46:03.355Z,97.07
2017-03-13T05:47:02.926Z,97.07
2017-03-13T05:48:03.295Z,97.07
2017-03-13T05:49:03.257Z,97.17
2017-03-13T05:50:03.255Z,96.98
2017-03-13T05:51:02.821Z,97.69
2017-03-13T05:52:03.208Z,97.41
2017-03-13T05:53:03.158Z,97.97
2017-03-13T05:54:02.757Z,98.26
2017-03-13T05:55:02.732Z,98.92
2017-03-13T05:56:03.092Z,98.83
2017-03-13T05:57:03.085Z,99.21
2017-03-13T05:58:03.057Z,99.63
2017-03-13T05:59:03.044Z,99.73
2017-03-13T06:00:03.003Z,99.73
2017-03-13T06:01:02.979Z,99.63
2017-03-13T06:02:02.959Z,99.26
2017-03-13T06:03:02.920Z,99.3
2017-03-13T06:04:02.933Z,99.02
2017-03-13T06:05:02.875Z,99.02
2017-03-13T06:06:02.477Z,98.83
2017-03-13T06:07:02.456Z,99.02
2017-03-13T06:08:02.808Z,98.92
2017-03-13T06:09:02.792Z,98.73
2017-03-13T06:10:02.774Z,99.11
2017-03-13T06:11:02.747Z,99.02
2017-03-13T06:12:02.323Z,98.92
2017-03-13T06:13:02.690Z,97.88
2017-03-13T06:14:02.667Z,97.78
2017-03-13T06:15:02.252Z,97.69
2017-03-13T06:16:02.619Z,97.45
2017-03-13T06:17:02.212Z,97.36
2017-03-13T06:18:02.581Z,97.27
2017-03-13T06:19:02.554Z,97.07
2017-03-13T06:20:02.538Z,96.88
2017-03-13T06:21:02.521Z,96.6
2017-03-13T06:22:02.492Z,96.79
2017-03-13T06:23:02.066Z,96.6
2017-03-13T06:24:02.438Z,96.41
2017-03-13T06:25:02.418Z,96.41
2017-03-13T06:26:01.993Z,96.12
2017-03-13T06:27:02.370Z,95.65
2017-03-13T06:28:02.344Z,95.75
2017-03-13T06:29:01.936Z,95.75
2017-03-13T06:30:01.903Z,95.65
2017-03-13T06:31:02.279Z,95.84
2017-03-13T06:32:02.250Z,95.75
2017-03-13T06:33:02.231Z,96.31
2017-03-13T06:34:02.250Z,96.41
2017-03-13T06:35:02.170Z,95.75
2017-03-13T06:36:02.157Z,96.22
2017-03-13T06:37:01.741Z,95.75
2017-03-13T06:38:01.730Z,96.22
2017-03-13T06:39:01.697Z,95.36
2017-03-13T06:40:02.081Z,95.27
2017-03-13T06:41:02.029Z,95.08
2017-03-13T06:42:02.066Z,96.03
2017-03-13T06:43:01.996Z,96.41
2017-03-13T06:44:01.976Z,97.12
2017-03-13T06:45:01.966Z,97.31
2017-03-13T06:46:01.922Z,97.69
2017-03-13T06:47:01.893Z,97.22
2017-03-13T06:48:01.494Z,97.02
2017-03-13T06:49:01.865Z,96.69
2017-03-13T06:50:01.459Z,96.12
2017-03-13T06:51:01.812Z,96.22
2017-03-13T06:52:01.389Z,96.22
2017-03-13T06:53:01.377Z,95.75
2017-03-13T06:54:01.739Z,95.27
2017-03-13T06:55:01.721Z,94.32
2017-03-13T06:56:01.310Z,92.85
2017-03-13T06:57:01.659Z,92.75
2017-03-13T06:58:01.266Z,90.99
2017-03-13T06:59:01.618Z,88.28
2017-03-13T07:00:01.607Z,87.08
2017-03-13T07:01:01.586Z,86.36
2017-03-13T07:02:01.569Z,85.94
2017-03-13T07:03:01.548Z,84.94
2017-03-13T07:04:01.512Z,83.65
2017-03-13T07:05:01.096Z,83.36
2017-03-13T07:06:01.075Z,82.6
2017-03-13T07:07:01.448Z,82.21
2017-03-13T07:08:01.424Z,81.21
2017-03-13T07:09:01.414Z,80.92
2017-03-13T07:10:01.391Z,81.26
2017-03-13T07:11:01.364Z,80.73
2017-03-13T07:12:01.342Z,80.83
2017-03-13T07:13:01.331Z,80.07
2017-03-13T07:14:01.300Z,81.49
2017-03-13T07:15:01.280Z,82.93
2017-03-13T07:16:00.879Z,83.8
2017-03-13T07:17:00.859Z,84.46
2017-03-13T07:18:01.219Z,84.7
2017-03-13T07:19:01.218Z,85.85
2017-03-13T07:20:01.196Z,87.13
2017-03-13T07:21:01.159Z,86.76
2017-03-13T07:22:00.749Z,87.04
2017-03-13T07:23:00.798Z,86.42
2017-03-13T07:24:01.085Z,86.13
2017-03-13T07:25:00.705Z,86.22
2017-03-13T07:26:00.668Z,86.42
2017-03-13T07:27:01.045Z,86.99
2017-03-13T07:28:01.007Z,88.46
2017-03-13T07:29:00.611Z,88.56
2017-03-13T07:30:00.972Z,87.37
2017-03-13T07:31:00.650Z,86.46
2017-03-13T07:32:00.932Z,85.41
2017-03-13T07:33:00.927Z,86.22
2017-03-13T07:34:00.900Z,85.6
2017-03-13T07:35:00.569Z,85.51
2017-03-13T07:36:00.470Z,85.32
2017-03-13T07:37:00.841Z,84.46
2017-03-13T07:38:00.413Z,83.84
2017-03-13T07:39:00.800Z,82.69
2017-03-13T07:40:00.766Z,82.79
2017-03-13T07:41:00.753Z,83.26
2017-03-13T07:42:00.746Z,83.17
2017-03-13T07:43:00.320Z,83.07
2017-03-13T07:44:00.705Z,82.79
2017-03-13T07:45:00.384Z,82.69
2017-03-13T07:46:00.703Z,82.6
2017-03-13T07:47:00.244Z,82.41
2017-03-13T07:48:00.654Z,82.69
2017-03-13T07:49:00.602Z,82.6
2017-03-13T07:50:00.625Z,81.88
2017-03-13T07:51:00.564Z,80.87
2017-03-13T07:52:00.160Z,79.38
2017-03-13T07:53:00.632Z,78.52
2017-03-13T07:54:00.509Z,77.86
2017-03-13T07:55:00.610Z,77.61
2017-03-13T07:56:00.469Z,76.94
2017-03-13T07:57:00.159Z,76.65
2017-03-13T07:58:00.428Z,75.54
2017-03-13T07:59:00.501Z,75.42
2017-03-13T08:00:00.016Z,75.16
2017-03-13T08:00:59.999Z,75.26
2017-03-13T08:02:00.417Z,74.11
2017-03-13T08:03:00.353Z,73.92
2017-03-13T08:04:00.337Z,73.44
2017-03-13T08:05:00.325Z,73.19
2017-03-13T08:05:59.906Z,73.67
2017-03-13T08:07:00.364Z,73
2017-03-13T08:08:00.302Z,73.19
2017-03-13T08:08:59.938Z,73.63
2017-03-13T08:10:00.232Z,73.73
2017-03-13T08:11:00.242Z,73.6
2017-03-13T08:12:00.202Z,73.98
2017-03-13T08:13:00.190Z,75.22
2017-03-13T08:14:00.216Z,75.42
2017-03-13T08:15:00.154Z,75.13
2017-03-13T08:15:59.755Z,75.6
2017-03-13T08:16:59.724Z,75.89
2017-03-13T08:18:00.119Z,75.95
2017-03-13T08:19:00.078Z,76.04
2017-03-13T08:20:00.197Z,76.62
2017-03-13T08:21:00.052Z,76.42
2017-03-13T08:22:00.068Z,76.52
2017-03-13T08:23:00.011Z,76.52
2017-03-13T08:24:00.055Z,77
2017-03-13T08:24:59.592Z,77.38
2017-03-13T08:25:59.962Z,77.57
2017-03-13T08:26:59.954Z,77.57
2017-03-13T08:27:59.533Z,78.58
2017-03-13T08:28:59.913Z,79.63
2017-03-13T08:29:59.948Z,79.78
2017-03-13T08:30:59.881Z,79.63
2017-03-13T08:31:59.868Z,78.96
2017-03-13T08:32:59.442Z,78.58
2017-03-13T08:33:59.820Z,77.91
2017-03-13T08:34:59.799Z,77.67
2017-03-13T08:35:59.779Z,78.05
2017-03-13T08:36:59.765Z,77.95
2017-03-13T08:37:59.758Z,77.28
2017-03-13T08:38:59.728Z,76.65
2017-03-13T08:39:59.329Z,76.75
2017-03-13T08:40:59.307Z,75.7
2017-03-13T08:41:59.676Z,75.74
2017-03-13T08:42:59.286Z,75.35
2017-03-13T08:43:59.636Z,74.21
2017-03-13T08:44:59.244Z,73.92
2017-03-13T08:45:59.604Z,74.4
2017-03-13T08:46:59.581Z,74.21
2017-03-13T08:47:59.574Z,74.11
2017-03-13T08:48:59.172Z,74.11
2017-03-13T08:49:59.555Z,73.54
2017-03-13T08:50:59.511Z,73.83
2017-03-13T08:51:59.108Z,73.67
2017-03-13T08:52:59.487Z,73.77
2017-03-13T08:53:59.470Z,72.66
2017-03-13T08:54:59.450Z,71.36
2017-03-13T08:55:59.042Z,69.38
2017-03-13T08:56:59.443Z,68.55
2017-03-13T08:57:59.398Z,67.11
2017-03-13T08:58:59.397Z,65.71
2017-03-13T08:59:59.389Z,64.89
2017-03-13T09:00:59.392Z,63.86
2017-03-13T09:01:59.360Z,65.17
2017-03-13T09:02:59.346Z,67.08
2017-03-13T09:03:59.334Z,68.23
2017-03-13T09:04:59.324Z,68.49
2017-03-13T09:05:59.299Z,68.96
2017-03-13T09:06:58.894Z,66.74
2017-03-13T09:07:59.272Z,65.11
2017-03-13T09:08:58.875Z,63.73
2017-03-13T09:09:59.252Z,62.93
2017-03-13T09:10:59.252Z,63.54
2017-03-13T09:11:59.231Z,64.63
2017-03-13T09:12:59.223Z,64.98
2017-03-13T09:13:59.241Z,65.3
2017-03-13T09:14:59.198Z,65.05
2017-03-13T09:15:58.809Z,63.73
2017-03-13T09:16:59.198Z,62.84
2017-03-13T09:17:59.177Z,63.19
2017-03-13T09:18:59.199Z,63.45
2017-03-13T09:19:58.796Z,62.87
2017-03-13T09:20:59.175Z,61.98
2017-03-13T09:21:59.157Z,63.19
2017-03-13T09:22:59.146Z,62.59
2017-03-13T09:23:59.147Z,63.26
2017-03-13T09:24:59.138Z,63.83
2017-03-13T09:25:58.723Z,62.93
2017-03-13T09:26:59.113Z,62.23
2017-03-13T09:27:58.763Z,61.21
2017-03-13T09:28:59.116Z,59.16
2017-03-13T09:29:59.089Z,58.32
2017-03-13T09:30:59.081Z,57.58
2017-03-13T09:31:59.071Z,56.93
2017-03-13T09:32:59.073Z,57.03
2017-03-13T09:33:58.770Z,56.91
2017-03-13T09:34:59.049Z,56.07
2017-03-13T09:35:59.066Z,56.16
2017-03-13T09:36:59.046Z,55.13
2017-03-13T09:37:59.056Z,54.2
2017-03-13T09:38:59.020Z,54.68
2017-03-13T09:39:59.071Z,55.68
2017-03-13T09:40:58.627Z,55.68
2017-03-13T09:41:59.105Z,55.71
2017-03-13T09:42:59.010Z,54.78
2017-03-13T09:43:59.054Z,55.4
2017-03-13T09:44:58.980Z,54.85
2017-03-13T09:45:58.991Z,54.27
2017-03-13T09:46:58.972Z,54.3
2017-03-13T09:47:59.025Z,55.66
2017-03-13T09:48:58.967Z,55.66
2017-03-13T09:49:58.970Z,55.71
2017-03-13T09:50:58.962Z,54.65
2017-03-13T09:51:58.553Z,55.68
2017-03-13T09:52:58.542Z,55.68
2017-03-13T09:53:58.928Z,55.71
2017-03-13T09:54:58.927Z,54.49
2017-03-13T09:55:58.927Z,55.4
2017-03-13T09:56:58.916Z,56.3
2017-03-13T09:57:58.916Z,57.59
2017-03-13T09:58:58.900Z,57.04
2017-03-13T09:59:58.906Z,56.82
2017-03-13T10:00:58.500Z,56.46
2017-03-13T10:01:58.878Z,56.46
2017-03-13T10:02:58.863Z,56.21
2017-03-13T10:03:58.862Z,55.44
2017-03-13T10:04:58.864Z,55.56
2017-03-13T10:05:58.843Z,55.66
2017-03-13T10:06:58.837Z,55.82
2017-03-13T10:07:58.832Z,55.73
2017-03-13T10:08:58.440Z,55.37
2017-03-13T10:09:58.833Z,55.66
2017-03-13T10:10:58.810Z,55.66
2017-03-13T10:11:58.790Z,55.2
2017-03-13T10:12:58.408Z,55.78
2017-03-13T10:13:58.793Z,55.46
2017-03-13T10:14:58.777Z,55.68
2017-03-13T10:15:58.757Z,55.66
2017-03-13T10:16:58.763Z,55.56
2017-03-13T10:17:58.748Z,56.04
2017-03-13T10:18:58.766Z,55.59
2017-03-13T10:19:58.345Z,56.46
2017-03-13T10:20:58.715Z,56.88
2017-03-13T10:21:58.806Z,55.68
2017-03-13T10:22:58.796Z,55.71
2017-03-13T10:23:58.788Z,54.87
2017-03-13T10:24:58.748Z,54.32
2017-03-13T10:25:58.682Z,54.52
2017-03-13T10:26:58.674Z,54.68
2017-03-13T10:27:58.279Z,55.04
2017-03-13T10:28:58.651Z,54.46
2017-03-13T10:29:58.652Z,54.2
2017-03-13T10:30:58.640Z,54.68
2017-03-13T10:31:58.684Z,53.94
2017-03-13T10:32:58.239Z,53.65
2017-03-13T10:33:58.616Z,53.55
2017-03-13T10:34:58.598Z,54.61
2017-03-13T10:35:58.585Z,54.2
2017-03-13T10:36:58.585Z,54.39
2017-03-13T10:37:58.566Z,54.58
2017-03-13T10:38:58.568Z,54.3
2017-03-13T10:39:58.169Z,54.3
2017-03-13T10:40:58.168Z,54.2
2017-03-13T10:41:58.544Z,54.17
2017-03-13T10:42:58.546Z,54.82
2017-03-13T10:43:58.524Z,54.17
2017-03-13T10:44:58.113Z,54.72
2017-03-13T10:45:58.506Z,54.75
2017-03-13T10:46:58.498Z,54.27
2017-03-13T10:47:58.502Z,53.23
2017-03-13T10:48:58.482Z,53.23
2017-03-13T10:49:58.481Z,52.69
2017-03-13T10:50:58.448Z,52.52
2017-03-13T10:51:58.442Z,51.87
2017-03-13T10:52:58.438Z,51.61
2017-03-13T10:53:58.432Z,51.22
2017-03-13T10:54:58.423Z,50.86
2017-03-13T10:55:58.415Z,50.79
2017-03-13T10:56:58.007Z,50.31
2017-03-13T10:57:58.382Z,50.21
2017-03-13T10:58:58.390Z,50.21
2017-03-13T10:59:58.438Z,50.11
2017-03-13T11:00:58.365Z,50.18
2017-03-13T11:01:57.966Z,50.5
2017-03-13T11:02:57.954Z,51.12
2017-03-13T11:03:58.385Z,51.05
2017-03-13T11:04:58.420Z,50.67
2017-03-13T11:05:58.332Z,50.11
2017-03-13T11:06:58.307Z,50.21
2017-03-13T11:07:58.297Z,50.31
2017-03-13T11:08:58.284Z,50.76
2017-03-13T11:09:58.281Z,50.38
2017-03-13T11:10:57.881Z,50.28
2017-03-13T11:11:58.265Z,50.38
2017-03-13T11:12:57.875Z,50.57
2017-03-13T11:13:58.245Z,50.38
2017-03-13T11:14:58.242Z,50.64
2017-03-13T11:15:58.231Z,50.74
2017-03-13T11:16:58.223Z,51.15
2017-03-13T11:17:58.201Z,51.44
2017-03-13T11:18:58.193Z,51.15
2017-03-13T11:19:58.188Z,50.98
2017-03-13T11:20:57.788Z,51.61
2017-03-13T11:21:58.172Z,51.53
2017-03-13T11:22:58.159Z,51.05
2017-03-13T11:23:58.142Z,51.41
2017-03-13T11:24:58.129Z,51.25
2017-03-13T11:25:58.125Z,51.73
2017-03-13T11:26:58.111Z,51.25
2017-03-13T11:27:58.096Z,50.59
2017-03-13T11:28:58.097Z,51.05
2017-03-13T11:29:58.097Z,51.05
2017-03-13T11:30:58.069Z,50.69
2017-03-13T11:31:58.081Z,51.37
2017-03-13T11:32:57.655Z,51.65
2017-03-13T11:33:58.070Z,51.07
2017-03-13T11:34:58.033Z,50.71
2017-03-13T11:35:58.024Z,50.23
2017-03-13T11:36:58.004Z,50.71
2017-03-13T11:37:57.622Z,50.71
2017-03-13T11:38:58.000Z,50.33
2017-03-13T11:39:57.972Z,51.07
2017-03-13T11:40:57.971Z,51.56
2017-03-13T11:41:57.954Z,50.52
2017-03-13T11:42:57.947Z,50.59
2017-03-13T11:43:57.920Z,50.21
2017-03-13T11:44:57.531Z,50.33
2017-03-13T11:45:57.941Z,50.43
2017-03-13T11:46:57.528Z,51.1
2017-03-13T11:47:57.909Z,51.29
2017-03-13T11:48:57.877Z,50.81
2017-03-13T11:49:57.892Z,51.29
2017-03-13T11:50:57.467Z,50.59
2017-03-13T11:51:57.848Z,50.69
2017-03-13T11:52:57.446Z,50.79
2017-03-13T11:53:57.835Z,51.17
2017-03-13T11:54:57.835Z,51.17
2017-03-13T11:55:57.816Z,51.27
2017-03-13T11:56:57.824Z,51.2
2017-03-13T11:57:57.402Z,51.51
2017-03-13T11:58:57.774Z,50.84
2017-03-13T11:59:57.763Z,50.93
2017-03-13T12:00:57.754Z,50.55
2017-03-13T12:01:57.749Z,50.09
2017-03-13T12:02:57.727Z,50.55
2017-03-13T12:03:57.727Z,51.01
2017-03-13T12:04:57.315Z,50.71
2017-03-13T12:05:57.308Z,50.91
2017-03-13T12:06:57.688Z,50.52
2017-03-13T12:07:57.675Z,51.03
2017-03-13T12:08:57.666Z,51.51
2017-03-13T12:09:57.648Z,50.93
2017-03-13T12:10:57.633Z,51.25
2017-03-13T12:11:57.645Z,50.31
2017-03-13T12:12:57.234Z,50.48
2017-03-13T12:13:57.614Z,50.31
2017-03-13T12:14:57.604Z,50.28
2017-03-13T12:15:57.586Z,50.38
2017-03-13T12:16:57.582Z,50.91
2017-03-13T12:17:57.179Z,51.95
2017-03-13T12:18:57.172Z,52.62
2017-03-13T12:19:57.550Z,51.68
2017-03-13T12:20:57.543Z,50.35
2017-03-13T12:21:57.521Z,50.23
2017-03-13T12:22:57.140Z,50.26
2017-03-13T12:23:57.498Z,50.89
2017-03-13T12:24:57.495Z,50.59
2017-03-13T12:25:57.099Z,50.69
2017-03-13T12:26:57.466Z,50.5
2017-03-13T12:27:57.468Z,50.43
2017-03-13T12:28:57.464Z,50.35
2017-03-13T12:29:57.445Z,50.16
2017-03-13T12:30:57.035Z,50.79
2017-03-13T12:31:57.028Z,50.91
2017-03-13T12:32:57.405Z,50.81
2017-03-13T12:33:57.010Z,51.78
2017-03-13T12:34:56.991Z,50.81
2017-03-13T12:35:57.364Z,50.55
2017-03-13T12:36:57.366Z,50.81
2017-03-13T12:37:56.985Z,51.1
2017-03-13T12:38:56.950Z,51.63
2017-03-13T12:39:57.329Z,51.49
2017-03-13T12:40:57.319Z,50.93
2017-03-13T12:41:57.307Z,50.93
2017-03-13T12:42:57.303Z,51.13
2017-03-13T12:43:57.286Z,50.96
2017-03-13T12:44:56.887Z,50.28
2017-03-13T12:45:56.919Z,49.54
2017-03-13T12:46:57.256Z,49.05
2017-03-13T12:47:56.905Z,49.15
2017-03-13T12:48:57.234Z,48.83
2017-03-13T12:49:56.955Z,49.12
2017-03-13T12:50:57.212Z,49.24
2017-03-13T12:54:18.582Z,49.12
2017-03-13T12:55:18.659Z,49.32
2017-03-13T12:56:18.554Z,49.34
2017-03-13T12:57:18.561Z,49.34